createdAt,value
2023-04-18T00:00:29.376Z,4.10
2023-04-18T00:02:59.182Z,3.83
2023-04-18T00:05:28.581Z,4.75
2023-04-18T00:07:56.805Z,3.75
2023-04-18T00:10:25.234Z,3.85
2023-04-18T00:12:53.370Z,4.63
2023-04-18T00:15:21.552Z,3.95
2023-04-18T00:17:51.205Z,4.35
2023-04-18T00:20:19.493Z,4.18
2023-04-18T00:22:47.720Z,3.97
2023-04-18T00:25:16.218Z,3.88
2023-04-18T00:27:44.382Z,3.80
2023-04-18T00:30:13.340Z,4.20
2023-04-18T00:32:41.591Z,4.18
2023-04-18T00:35:11.421Z,4.63
2023-04-18T00:37:39.638Z,3.45
2023-04-18T00:40:08.871Z,3.78
2023-04-18T00:42:37.186Z,4.32
2023-04-18T00:45:06.231Z,4.00
2023-04-18T00:47:34.521Z,4.25
2023-04-18T00:50:03.468Z,3.72
2023-04-18T00:52:35.853Z,3.65
2023-04-18T00:55:05.255Z,3.97
2023-04-18T00:57:33.534Z,3.85
2023-04-18T01:00:03.794Z,3.70
2023-04-18T01:02:32.365Z,4.10
2023-04-18T01:05:00.762Z,4.20
2023-04-18T01:07:30.602Z,3.92
2023-04-18T01:10:00.814Z,3.25
2023-04-18T01:12:29.089Z,3.40
2023-04-18T01:14:57.286Z,3.42
2023-04-18T01:17:28.278Z,2.78
2023-04-18T01:19:56.873Z,3.10
2023-04-18T01:22:25.387Z,3.75
2023-04-18T01:24:54.971Z,3.08
2023-04-18T01:27:23.156Z,3.28
2023-04-18T01:29:51.423Z,3.47
2023-04-18T01:32:20.468Z,4.30
2023-04-18T01:34:48.836Z,3.30
2023-04-18T01:37:17.616Z,4.03
2023-04-18T01:39:45.821Z,3.65
2023-04-18T01:42:15.391Z,3.70
2023-04-18T01:44:45.748Z,3.72
2023-04-18T01:47:14.271Z,3.47
2023-04-18T01:49:46.683Z,3.60
2023-04-18T01:52:15.193Z,3.60
2023-04-18T01:54:43.822Z,4.18
2023-04-18T01:57:12.024Z,4.45
2023-04-18T01:59:41.599Z,3.40
2023-04-18T02:02:11.251Z,4.05
2023-04-18T02:04:39.662Z,3.88
2023-04-18T02:07:07.857Z,3.60
2023-04-18T02:09:37.165Z,4.10
2023-04-18T02:12:05.492Z,3.78
2023-04-18T02:14:37.137Z,4.28
2023-04-18T02:17:06.696Z,3.92
2023-04-18T02:19:34.909Z,4.53
2023-04-18T02:22:03.085Z,3.90
2023-04-18T02:24:32.807Z,4.10
2023-04-18T02:27:01.938Z,4.43
2023-04-18T02:29:30.505Z,4.20
2023-04-18T02:31:59.860Z,5.03
2023-04-18T02:34:29.681Z,4.53
2023-04-18T02:36:57.877Z,5.78
2023-04-18T02:39:26.058Z,5.13
2023-04-18T02:41:54.278Z,5.82
2023-04-18T02:44:26.076Z,5.47
2023-04-18T02:46:54.270Z,5.55
2023-04-18T02:49:22.730Z,5.10
2023-04-18T02:51:55.798Z,5.90
2023-04-18T02:54:24.845Z,5.63
2023-04-18T02:57:13.619Z,6.05
2023-04-18T02:59:55.201Z,6.15
2023-04-18T03:02:41.922Z,6.35
2023-04-18T03:05:26.167Z,5.70
2023-04-18T03:07:58.860Z,6.05
2023-04-18T03:10:27.331Z,5.93
2023-04-18T03:12:55.788Z,6.50
2023-04-18T03:15:24.157Z,6.05
2023-04-18T03:17:53.829Z,6.50
2023-04-18T03:20:24.186Z,6.32
2023-04-18T03:22:53.577Z,6.03
2023-04-18T03:25:27.045Z,6.32
2023-04-18T03:27:55.266Z,7.50
2023-04-18T03:30:24.514Z,5.25
2023-04-18T03:32:58.671Z,6.85
2023-04-18T03:35:27.122Z,7.32
2023-04-18T03:37:56.662Z,6.25
2023-04-18T03:40:28.956Z,7.13
2023-04-18T03:43:02.437Z,7.70
2023-04-18T03:45:31.037Z,6.75
2023-04-18T03:47:59.285Z,6.75
2023-04-18T03:50:28.529Z,7.20
2023-04-18T03:52:58.297Z,6.75
2023-04-18T03:55:28.162Z,6.70
2023-04-18T03:57:58.375Z,8.02
2023-04-18T04:00:30.261Z,6.22
2023-04-18T04:03:09.767Z,6.50
2023-04-18T04:05:38.262Z,7.07
2023-04-18T04:08:09.597Z,7.28
2023-04-18T04:10:39.468Z,6.32
2023-04-18T04:13:08.007Z,7.18
2023-04-18T04:15:40.191Z,6.63
2023-04-18T04:18:11.115Z,6.65
2023-04-18T04:20:43.279Z,5.35
2023-04-18T04:23:15.297Z,5.88
2023-04-18T04:25:48.355Z,6.07
2023-04-18T04:28:31.498Z,5.93
2023-04-18T04:31:08.186Z,6.07
2023-04-18T04:33:38.854Z,5.45
2023-04-18T04:36:16.141Z,5.80
2023-04-18T04:38:47.266Z,6.05
2023-04-18T04:41:17.186Z,6.03
2023-04-18T04:43:46.649Z,5.65
2023-04-18T04:46:19.927Z,5.25
2023-04-18T04:48:50.679Z,5.10
2023-04-18T04:51:20.212Z,5.30
2023-04-18T04:53:48.857Z,5.65
2023-04-18T04:56:18.532Z,5.05
2023-04-18T04:58:47.327Z,5.13
2023-04-18T05:01:20.844Z,4.82
2023-04-18T05:03:51.510Z,5.45
2023-04-18T05:06:20.821Z,5.50
2023-04-18T05:08:49.143Z,4.93
2023-04-18T05:11:19.282Z,5.28
2023-04-18T05:13:47.617Z,5.85
2023-04-18T05:16:15.837Z,5.78
2023-04-18T05:18:46.337Z,5.85
2023-04-18T05:21:16.647Z,5.22
2023-04-18T05:23:44.834Z,6.05
2023-04-18T05:26:13.026Z,4.95
2023-04-18T05:28:42.621Z,6.20
2023-04-18T05:31:10.863Z,5.53
2023-04-18T05:33:39.068Z,5.10
2023-04-18T05:36:08.015Z,5.85
2023-04-18T05:38:36.202Z,5.93
2023-04-18T05:41:04.412Z,6.47
2023-04-18T05:43:32.630Z,6.05
2023-04-18T05:46:02.173Z,5.97
2023-04-18T05:48:30.407Z,6.40
2023-04-18T05:50:58.666Z,6.15
2023-04-18T05:53:26.856Z,5.95
2023-04-18T05:55:55.194Z,5.40
2023-04-18T05:58:23.335Z,5.78
2023-04-18T06:00:51.604Z,6.50
2023-04-18T06:03:21.304Z,5.57
2023-04-18T06:05:49.746Z,5.72
2023-04-18T06:08:18.022Z,7.10
2023-04-18T06:10:46.268Z,6.32
2023-04-18T06:13:16.429Z,6.40
2023-04-18T06:15:44.747Z,5.95
2023-04-18T06:18:12.964Z,7.22
2023-04-18T06:20:44.180Z,6.30
2023-04-18T06:23:12.401Z,6.03
2023-04-18T06:25:42.704Z,6.30
2023-04-18T06:28:11.064Z,6.43
2023-04-18T06:30:39.281Z,6.53
2023-04-18T06:33:10.353Z,6.18
2023-04-18T06:35:39.174Z,6.32
2023-04-18T06:38:08.854Z,7.35
2023-04-18T06:40:37.168Z,6.57
2023-04-18T06:43:08.027Z,6.00
2023-04-18T06:45:36.755Z,5.93
2023-04-18T06:48:05.522Z,6.20
2023-04-18T06:50:33.759Z,6.22
2023-04-18T06:53:05.373Z,6.32
2023-04-18T06:55:35.386Z,6.05
2023-04-18T06:58:04.976Z,6.38
2023-04-18T07:00:33.146Z,6.30
2023-04-18T07:03:02.130Z,6.15
2023-04-18T07:05:30.464Z,5.75
2023-04-18T07:07:58.618Z,5.47
2023-04-18T07:10:27.077Z,6.32
2023-04-18T07:12:56.627Z,5.65
2023-04-18T07:15:24.902Z,6.30
2023-04-18T07:17:53.151Z,5.95
2023-04-18T07:20:21.510Z,5.78
2023-04-18T07:22:50.007Z,5.38
2023-04-18T07:25:19.142Z,6.03
2023-04-18T07:27:47.873Z,5.75
2023-04-18T07:30:17.629Z,5.95
2023-04-18T07:32:47.226Z,6.22
2023-04-18T07:35:15.487Z,6.20
2023-04-18T07:37:44.174Z,5.80
2023-04-18T07:40:15.766Z,5.25
2023-04-18T07:42:44.456Z,5.97
2023-04-18T07:45:12.851Z,5.82
2023-04-18T07:47:42.429Z,7.05
2023-04-18T07:50:11.727Z,5.65
2023-04-18T07:52:39.902Z,4.95
2023-04-18T07:55:09.067Z,5.88
2023-04-18T07:57:37.285Z,6.30
2023-04-18T08:00:09.494Z,6.50
2023-04-18T08:02:45.037Z,7.60
2023-04-18T08:05:13.426Z,5.50
2023-04-18T08:07:41.941Z,5.53
2023-04-18T08:10:12.935Z,5.00
2023-04-18T08:12:41.617Z,5.50
2023-04-18T08:15:10.723Z,10.27
2023-04-18T08:17:39.785Z,9.10
2023-04-18T08:20:10.361Z,9.05
2023-04-18T08:22:50.061Z,8.98
2023-04-18T08:25:27.288Z,5.57
2023-04-18T08:27:55.729Z,5.00
2023-04-18T08:30:23.881Z,4.55
2023-04-18T08:32:52.220Z,4.70
2023-04-18T08:35:21.990Z,4.60
2023-04-18T08:37:50.174Z,5.03
2023-04-18T08:40:18.608Z,4.63
2023-04-18T08:42:46.776Z,4.40
2023-04-18T08:45:15.247Z,4.30
2023-04-18T08:47:43.776Z,3.53
2023-04-18T08:50:12.636Z,4.15
2023-04-18T08:52:47.668Z,4.78
2023-04-18T08:55:16.329Z,6.63
2023-04-18T08:57:48.179Z,6.78
2023-04-18T09:00:19.711Z,4.15
2023-04-18T09:02:48.063Z,3.97
2023-04-18T09:05:19.990Z,3.40
2023-04-18T09:07:51.411Z,4.20
2023-04-18T09:10:28.682Z,3.53
2023-04-18T09:12:57.845Z,3.40
2023-04-18T09:15:29.140Z,3.70
2023-04-18T09:17:59.614Z,3.83
2023-04-18T09:20:35.710Z,3.75
2023-04-18T09:23:10.351Z,3.50
2023-04-18T09:25:46.408Z,3.60
2023-04-18T09:28:24.353Z,3.53
2023-04-18T09:30:54.253Z,4.03
2023-04-18T09:33:29.021Z,3.97
2023-04-18T09:36:00.209Z,3.53
2023-04-18T09:38:42.193Z,3.45
2023-04-18T09:41:11.115Z,2.85
2023-04-18T09:43:39.661Z,2.15
2023-04-18T09:46:09.094Z,2.58
2023-04-18T09:48:37.579Z,3.33
2023-04-18T09:51:08.456Z,3.40
2023-04-18T09:53:41.554Z,3.15
2023-04-18T09:56:13.848Z,3.72
2023-04-18T09:58:44.689Z,3.25
2023-04-18T10:01:13.358Z,2.85
2023-04-18T10:03:46.212Z,3.13
2023-04-18T10:06:17.740Z,3.53
2023-04-18T10:08:48.976Z,3.47
2023-04-18T10:11:19.229Z,2.92
2023-04-18T10:13:50.429Z,5.18
2023-04-18T10:16:20.357Z,3.78
2023-04-18T10:18:50.867Z,3.13
2023-04-18T10:21:19.208Z,2.70
2023-04-18T10:23:50.349Z,3.03
2023-04-18T10:26:18.548Z,5.80
2023-04-18T10:28:57.297Z,2.90
2023-04-18T10:31:26.847Z,3.63
2023-04-18T10:34:17.690Z,3.42
2023-04-18T10:37:05.406Z,3.40
2023-04-18T10:39:58.245Z,2.60
2023-04-18T10:43:00.608Z,3.15
2023-04-18T10:45:31.239Z,4.53
2023-04-18T10:48:26.130Z,3.40
2023-04-18T10:51:14.480Z,3.20
2023-04-18T10:53:49.550Z,3.30
2023-04-18T10:56:19.144Z,2.92
2023-04-18T10:58:57.232Z,2.60
2023-04-18T11:01:31.979Z,2.63
2023-04-18T11:04:01.690Z,2.60
2023-04-18T11:06:31.270Z,1.75
2023-04-18T11:09:17.184Z,2.22
2023-04-18T11:12:03.250Z,2.72
2023-04-18T11:14:41.065Z,2.50
2023-04-18T11:17:19.959Z,2.08
2023-04-18T11:19:48.773Z,1.75
2023-04-18T11:22:17.922Z,2.50
2023-04-18T11:24:46.233Z,1.95
2023-04-18T11:27:18.615Z,1.50
2023-04-18T11:29:53.253Z,1.42
2023-04-18T11:32:24.040Z,1.55
2023-04-18T11:34:54.864Z,1.52
2023-04-18T11:37:23.749Z,1.90
2023-04-18T11:39:53.850Z,1.48
2023-04-18T11:42:27.488Z,1.63
2023-04-18T11:44:58.267Z,2.22
2023-04-18T11:47:28.722Z,2.28
2023-04-18T11:49:58.236Z,2.50
2023-04-18T11:52:28.279Z,1.90
2023-04-18T11:55:10.756Z,2.15
2023-04-18T11:57:40.858Z,2.17
2023-04-18T12:00:12.215Z,1.90
2023-04-18T12:02:43.157Z,1.88
2023-04-18T12:05:14.543Z,2.05
2023-04-18T12:07:45.823Z,2.20
2023-04-18T12:10:26.246Z,3.70
2023-04-18T12:12:58.537Z,2.13
2023-04-18T12:15:28.443Z,2.17
2023-04-18T12:18:01.076Z,4.43
2023-04-18T12:20:36.375Z,2.53
2023-04-18T12:23:05.554Z,2.20
2023-04-18T12:25:37.514Z,2.22
2023-04-18T12:28:15.844Z,2.03
2023-04-18T12:30:44.106Z,7.50
2023-04-18T12:33:12.535Z,4.80
2023-04-18T12:35:41.139Z,2.40
2023-04-18T12:38:09.393Z,3.38
2023-04-18T12:40:40.701Z,2.25
2023-04-18T12:43:11.228Z,1.98
2023-04-18T12:45:39.427Z,2.28
2023-04-18T12:48:08.792Z,3.40
2023-04-18T12:50:36.982Z,2.28
2023-04-18T12:53:08.041Z,2.00
2023-04-18T12:55:36.311Z,2.17
2023-04-18T12:58:04.742Z,1.90
2023-04-18T13:00:34.562Z,2.03
2023-04-18T13:03:03.043Z,2.10
2023-04-18T13:05:33.941Z,2.15
2023-04-18T13:08:15.216Z,2.08
2023-04-18T13:10:45.722Z,2.28
2023-04-18T13:13:14.041Z,2.05
2023-04-18T13:15:43.622Z,2.35
2023-04-18T13:18:11.828Z,1.88
2023-04-18T13:20:40.039Z,2.60
2023-04-18T13:23:08.215Z,2.53
2023-04-18T13:25:40.061Z,2.25
2023-04-18T13:28:08.242Z,2.40
2023-04-18T13:30:36.616Z,2.60
2023-04-18T13:33:06.565Z,2.38
2023-04-18T13:35:35.963Z,2.38
2023-04-18T13:38:04.187Z,2.90
2023-04-18T13:40:33.428Z,2.53
2023-04-18T13:43:01.618Z,2.42
2023-04-18T13:45:29.779Z,2.30
2023-04-18T13:47:57.997Z,2.15
2023-04-18T13:50:30.125Z,2.20
2023-04-18T13:52:58.315Z,2.00
2023-04-18T13:55:27.304Z,2.45
2023-04-18T13:57:55.469Z,2.28
2023-04-18T14:00:23.675Z,2.30
2023-04-18T14:02:51.974Z,2.78
2023-04-18T14:05:20.471Z,2.65
2023-04-18T14:07:50.140Z,2.83
2023-04-18T14:10:18.295Z,2.40
2023-04-18T14:12:48.224Z,3.22
2023-04-18T14:15:19.440Z,2.42
2023-04-18T14:17:47.681Z,2.42
2023-04-18T14:20:19.205Z,2.78
2023-04-18T14:22:47.444Z,2.80
2023-04-18T14:25:17.093Z,2.50
2023-04-18T14:27:48.831Z,2.67
2023-04-18T14:30:17.221Z,2.75
2023-04-18T14:32:45.742Z,2.85
2023-04-18T14:35:14.281Z,2.40
2023-04-18T14:37:42.473Z,2.60
2023-04-18T14:40:12.301Z,2.22
2023-04-18T14:42:41.881Z,2.75
2023-04-18T14:45:11.715Z,2.70
2023-04-18T14:47:40.096Z,2.20
2023-04-18T14:50:11.742Z,2.40
2023-04-18T14:52:40.200Z,2.50
2023-04-18T14:55:10.695Z,2.17
2023-04-18T14:57:39.429Z,2.30
2023-04-18T15:00:11.961Z,2.25
2023-04-18T15:02:40.563Z,2.35
2023-04-18T15:05:09.934Z,2.60
2023-04-18T15:07:38.236Z,2.13
2023-04-18T15:10:07.487Z,2.67
2023-04-18T15:12:35.965Z,5.22
2023-04-18T15:15:04.366Z,2.55
2023-04-18T15:17:36.462Z,2.17
2023-04-18T15:20:07.059Z,2.33
2023-04-18T15:22:35.654Z,1.95
2023-04-18T15:25:04.556Z,2.88
2023-04-18T15:27:33.115Z,2.45
2023-04-18T15:30:02.279Z,2.70
2023-04-18T15:32:31.010Z,2.33
2023-04-18T15:35:00.561Z,2.28
2023-04-18T15:37:28.856Z,2.75
2023-04-18T15:39:57.041Z,2.85
2023-04-18T15:42:25.316Z,3.05
2023-04-18T15:44:53.510Z,4.30
2023-04-18T15:47:24.404Z,3.10
2023-04-18T15:49:55.341Z,4.00
2023-04-18T15:52:24.878Z,3.20
2023-04-18T15:54:53.295Z,2.72
2023-04-18T15:57:22.081Z,4.35
2023-04-18T15:59:50.233Z,3.67
2023-04-18T16:02:18.486Z,2.75
2023-04-18T16:04:47.387Z,3.20
2023-04-18T16:07:16.017Z,3.00
2023-04-18T16:09:45.865Z,3.33
2023-04-18T16:12:14.269Z,3.10
2023-04-18T16:14:42.444Z,3.25
2023-04-18T16:17:10.674Z,3.83
2023-04-18T16:19:40.858Z,4.03
2023-04-18T16:22:10.418Z,3.17
2023-04-18T16:24:39.913Z,3.78
2023-04-18T16:27:11.103Z,3.90
2023-04-18T16:29:39.318Z,3.67
2023-04-18T16:32:08.345Z,3.50
2023-04-18T16:34:36.554Z,3.30
2023-04-18T16:37:05.124Z,3.40
2023-04-18T16:39:36.291Z,3.45
2023-04-18T16:42:04.670Z,3.38
2023-04-18T16:44:36.578Z,3.70
2023-04-18T16:47:06.080Z,3.72
2023-04-18T16:49:34.281Z,4.38
2023-04-18T16:52:02.689Z,3.40
2023-04-18T16:54:31.030Z,4.20
2023-04-18T16:56:59.248Z,4.10
2023-04-18T16:59:30.215Z,3.38
2023-04-18T17:02:00.359Z,3.58
2023-04-18T17:04:29.072Z,4.32
2023-04-18T17:06:57.370Z,3.70
2023-04-18T17:09:25.596Z,5.60
2023-04-18T17:11:53.774Z,4.82
2023-04-18T17:14:21.952Z,7.07
2023-04-18T17:16:52.839Z,4.50
2023-04-18T17:19:24.208Z,4.82
2023-04-18T17:21:52.443Z,3.80
2023-04-18T17:24:22.426Z,4.75
2023-04-18T17:26:51.044Z,5.43
2023-04-18T17:29:19.409Z,5.97
2023-04-18T17:31:48.177Z,5.38
2023-04-18T17:34:16.454Z,5.15
2023-04-18T17:36:46.474Z,5.07
2023-04-18T17:39:16.773Z,4.50
2023-04-18T17:41:46.674Z,3.90
2023-04-18T17:44:14.849Z,4.65
2023-04-18T17:46:43.035Z,6.10
2023-04-18T17:49:11.810Z,5.40
2023-04-18T17:51:40.286Z,5.82
2023-04-18T17:54:11.069Z,5.15
2023-04-18T17:56:39.329Z,4.80
2023-04-18T17:59:09.741Z,5.57
2023-04-18T18:01:38.667Z,6.32
2023-04-18T18:04:09.714Z,5.45
2023-04-18T18:06:38.211Z,5.40
2023-04-18T18:09:07.220Z,5.75
2023-04-18T18:11:36.864Z,6.65
2023-04-18T18:14:05.628Z,5.15
2023-04-18T18:16:34.135Z,6.22
2023-04-18T18:19:02.374Z,6.45
2023-04-18T18:21:30.548Z,6.85
2023-04-18T18:23:58.746Z,6.35
2023-04-18T18:26:27.596Z,5.53
2023-04-18T18:28:57.132Z,5.88
2023-04-18T18:31:27.689Z,5.68
2023-04-18T18:33:55.873Z,6.55
2023-04-18T18:36:24.091Z,5.70
2023-04-18T18:38:52.252Z,6.22
2023-04-18T18:41:22.522Z,6.25
2023-04-18T18:43:51.214Z,5.93
2023-04-18T18:46:20.837Z,5.60
2023-04-18T18:48:49.781Z,6.18
2023-04-18T18:51:19.979Z,6.28
2023-04-18T18:53:49.722Z,5.85
2023-04-18T18:56:18.195Z,5.97
2023-04-18T18:58:46.387Z,6.22
2023-04-18T19:01:14.624Z,5.60
2023-04-18T19:03:44.320Z,6.47
2023-04-18T19:06:12.621Z,6.90
2023-04-18T19:08:40.799Z,7.30
2023-04-18T19:11:09.627Z,9.07
2023-04-18T19:13:37.903Z,9.45
2023-04-18T19:16:06.650Z,7.40
2023-04-18T19:18:34.941Z,7.78
2023-04-18T19:21:07.485Z,7.68
2023-04-18T19:23:35.945Z,7.03
2023-04-18T19:26:04.197Z,7.32
2023-04-18T19:28:32.376Z,7.07
2023-04-18T19:31:02.134Z,7.00
2023-04-18T19:33:30.397Z,6.10
2023-04-18T19:35:59.045Z,6.68
2023-04-18T19:38:28.652Z,7.18
2023-04-18T19:40:56.941Z,6.50
2023-04-18T19:43:26.198Z,6.80
2023-04-18T19:45:55.371Z,7.53
2023-04-18T19:48:23.664Z,7.57
2023-04-18T19:50:51.862Z,7.30
2023-04-18T19:53:20.504Z,7.70
2023-04-18T19:55:51.345Z,8.00
2023-04-18T19:58:35.503Z,8.77
2023-04-18T20:01:05.876Z,7.25
2023-04-18T20:03:34.927Z,7.15
2023-04-18T20:06:05.402Z,6.78
2023-04-18T20:08:33.917Z,7.10
2023-04-18T20:11:04.982Z,7.50
2023-04-18T20:13:33.383Z,7.10
2023-04-18T20:16:01.760Z,6.30
2023-04-18T20:18:32.347Z,7.10
2023-04-18T20:21:00.543Z,7.50
2023-04-18T20:23:28.750Z,6.97
2023-04-18T20:25:59.231Z,7.20
2023-04-18T20:28:29.035Z,6.78
2023-04-18T20:30:57.331Z,6.88
2023-04-18T20:33:27.682Z,6.53
2023-04-18T20:35:56.018Z,7.10
2023-04-18T20:38:26.159Z,6.97
2023-04-18T20:40:54.694Z,6.70
2023-04-18T20:43:23.086Z,7.68
2023-04-18T20:45:53.803Z,7.57
2023-04-18T20:48:22.258Z,7.13
2023-04-18T20:50:51.999Z,7.95
2023-04-18T20:53:21.592Z,7.00
2023-04-18T20:55:50.018Z,7.03
2023-04-18T20:58:18.254Z,7.30
2023-04-18T21:00:46.505Z,5.80
2023-04-18T21:03:16.853Z,6.70
2023-04-18T21:05:45.860Z,6.45
2023-04-18T21:08:14.051Z,6.70
2023-04-18T21:10:42.238Z,6.68
2023-04-18T21:13:12.471Z,7.10
2023-04-18T21:15:42.178Z,7.63
2023-04-18T21:18:10.563Z,7.82
2023-04-18T21:20:40.161Z,7.93
2023-04-18T21:23:08.417Z,8.18
2023-04-18T21:25:36.632Z,9.57
2023-04-18T21:28:05.332Z,7.32
2023-04-18T21:30:33.531Z,7.07
2023-04-18T21:33:01.764Z,6.90
2023-04-18T21:35:30.081Z,7.00
2023-04-18T21:37:59.969Z,7.38
2023-04-18T21:40:30.604Z,7.00
2023-04-18T21:42:58.848Z,7.55
2023-04-18T21:45:29.897Z,7.43
2023-04-18T21:47:58.174Z,7.97
2023-04-18T21:50:28.744Z,7.78
2023-04-18T21:52:57.023Z,7.90
2023-04-18T21:55:26.705Z,8.30
2023-04-18T21:57:57.267Z,7.25
2023-04-18T22:00:25.588Z,7.28
2023-04-18T22:02:53.867Z,7.35
2023-04-18T22:05:22.189Z,7.22
2023-04-18T22:07:58.063Z,7.10
2023-04-18T22:10:28.169Z,7.68
2023-04-18T22:12:56.401Z,7.63
2023-04-18T22:15:26.934Z,7.88
2023-04-18T22:17:55.449Z,8.95
2023-04-18T22:20:25.486Z,8.38
2023-04-18T22:22:54.566Z,7.88
2023-04-18T22:25:22.743Z,7.00
2023-04-18T22:27:52.275Z,8.77
2023-04-18T22:30:20.561Z,8.70
2023-04-18T22:32:48.843Z,8.55
2023-04-18T22:35:17.156Z,8.85
2023-04-18T22:37:45.351Z,8.02
2023-04-18T22:40:14.581Z,8.63
2023-04-18T22:42:43.262Z,9.65
2023-04-18T22:45:13.560Z,9.98
2023-04-18T22:47:41.941Z,9.68
2023-04-18T22:50:10.809Z,18.50
2023-04-18T22:52:39.036Z,8.82
2023-04-18T22:55:08.001Z,10.15
2023-04-18T22:57:39.129Z,8.93
2023-04-18T23:00:10.014Z,9.85
2023-04-18T23:02:39.784Z,9.57
2023-04-18T23:05:10.678Z,9.75
2023-04-18T23:07:38.902Z,9.80
2023-04-18T23:10:08.480Z,8.77
2023-04-18T23:12:36.656Z,9.70
2023-04-18T23:15:05.817Z,9.00
2023-04-18T23:17:34.783Z,8.85
2023-04-18T23:20:06.746Z,11.10
2023-04-18T23:22:34.921Z,10.43
2023-04-18T23:25:03.223Z,8.98
2023-04-18T23:27:31.415Z,10.25
2023-04-18T23:29:59.684Z,9.48
2023-04-18T23:32:27.876Z,10.57
2023-04-18T23:34:56.071Z,10.88
2023-04-18T23:37:25.698Z,9.82
2023-04-18T23:39:53.875Z,9.73
2023-04-18T23:42:22.050Z,10.13
2023-04-18T23:44:50.454Z,10.43
2023-04-18T23:47:18.700Z,10.30
2023-04-18T23:49:46.919Z,10.52
2023-04-18T23:52:15.224Z,9.23
2023-04-18T23:54:45.042Z,10.95
2023-04-18T23:57:14.240Z,11.52
2023-04-18T23:59:42.428Z,10.38
